createdAt,value
2022-12-01T00:01:25.036Z,96526.53
2022-12-01T00:04:26.637Z,96522.00
2022-12-01T00:07:28.283Z,96522.09
2022-12-01T00:10:29.868Z,96518.72
2022-12-01T00:13:31.951Z,96512.72
2022-12-01T00:16:34.279Z,96507.22
2022-12-01T00:19:35.971Z,96508.06
2022-12-01T00:22:38.394Z,96504.59
2022-12-01T00:25:39.972Z,96506.38
2022-12-01T00:28:42.052Z,96497.75
2022-12-01T00:31:43.643Z,96507.13
2022-12-01T00:34:45.277Z,96495.72
2022-12-01T00:37:46.846Z,96513.16
2022-12-01T00:40:48.376Z,96511.34
2022-12-01T00:43:50.698Z,96512.31
2022-12-01T00:46:52.294Z,96510.59
2022-12-01T00:49:53.918Z,96519.25
2022-12-01T00:52:55.494Z,96509.66
2022-12-01T00:55:57.271Z,96520.13
2022-12-01T00:58:59.251Z,96517.34
2022-12-01T01:02:00.881Z,96520.97
2022-12-01T01:05:02.460Z,96523.47
2022-12-01T01:08:07.791Z,96525.25
2022-12-01T01:11:09.927Z,96525.50
2022-12-01T01:14:11.480Z,96521.81
2022-12-01T01:17:13.030Z,96517.47
2022-12-01T01:20:14.617Z,96527.09
2022-12-01T01:23:16.167Z,96521.91
2022-12-01T01:26:23.859Z,96521.91
2022-12-01T01:29:25.381Z,96517.47
2022-12-01T01:32:26.892Z,96519.03
2022-12-01T01:35:28.436Z,96508.91
2022-12-01T01:38:30.282Z,96517.56
2022-12-01T01:41:31.802Z,96516.41
2022-12-01T01:44:59.758Z,96519.03
2022-12-01T01:48:03.671Z,96525.16
2022-12-01T01:51:06.072Z,96521.81
2022-12-01T01:54:15.584Z,96523.69
2022-12-01T01:57:24.348Z,96528.97
2022-12-01T02:00:25.958Z,96523.69
2022-12-01T02:03:28.281Z,96524.63
2022-12-01T02:06:29.870Z,96526.34
2022-12-01T02:09:31.437Z,96518.31
2022-12-01T02:12:58.747Z,96515.88
2022-12-01T02:16:20.808Z,96516.81
2022-12-01T02:19:28.258Z,96509.13
2022-12-01T02:22:53.923Z,96508.50
2022-12-01T02:26:01.927Z,96508.59
2022-12-01T02:29:30.258Z,96500.66
2022-12-01T02:32:46.953Z,96510.38
2022-12-01T02:36:06.677Z,96498.97
2022-12-01T02:39:19.504Z,96507.13
2022-12-01T02:42:48.749Z,96492.25
2022-12-01T02:46:05.742Z,96498.47
2022-12-01T02:49:13.154Z,96501.09
2022-12-01T02:52:16.155Z,96500.34
2022-12-01T02:55:17.810Z,96505.53
2022-12-01T02:58:19.869Z,96500.25
2022-12-01T03:01:32.405Z,96499.31
2022-12-01T03:04:56.776Z,96490.34
2022-12-01T03:08:07.431Z,96470.09
2022-12-01T03:11:26.802Z,96477.16
2022-12-01T03:14:45.675Z,96485.06
2022-12-01T03:17:59.950Z,96488.44
2022-12-01T03:21:10.327Z,96490.13
2022-12-01T03:24:15.339Z,96499.63
2022-12-01T03:27:21.364Z,96493.31
2022-12-01T03:30:25.348Z,96483.59
2022-12-01T03:33:33.941Z,96493.94
2022-12-01T03:36:41.024Z,96490.44
2022-12-01T03:39:45.134Z,96478.34
2022-12-01T03:42:53.492Z,96488.88
2022-12-01T03:46:27.613Z,96488.03
2022-12-01T03:49:30.117Z,96487.28
2022-12-01T03:52:59.805Z,96488.03
2022-12-01T03:56:04.844Z,96494.97
2022-12-01T03:59:09.828Z,96491.38
2022-12-01T04:02:12.450Z,96501.94
2022-12-01T04:05:14.619Z,96491.72
2022-12-01T04:08:16.172Z,96506.50
2022-12-01T04:11:36.179Z,96506.38
2022-12-01T04:14:37.725Z,96499.31
2022-12-01T04:17:40.181Z,96501.84
2022-12-01T04:20:43.399Z,96500.91
2022-12-01T04:24:00.079Z,96504.38
2022-12-01T04:27:01.657Z,96499.84
2022-12-01T04:30:05.568Z,96488.56
2022-12-01T04:33:07.138Z,96496.38
2022-12-01T04:36:09.184Z,96490.25
2022-12-01T04:39:10.723Z,96494.59
2022-12-01T04:42:12.535Z,96496.25
2022-12-01T04:45:14.034Z,96500.69
2022-12-01T04:48:15.720Z,96496.38
2022-12-01T04:51:17.621Z,96488.31
2022-12-01T04:54:19.215Z,96492.78
2022-12-01T04:57:20.722Z,96497.22
2022-12-01T05:00:23.087Z,96504.16
2022-12-01T05:03:24.616Z,96499.00
2022-12-01T05:06:28.324Z,96492.78
2022-12-01T05:09:29.863Z,96500.69
2022-12-01T05:12:31.687Z,96501.31
2022-12-01T05:15:33.260Z,96506.50
2022-12-01T05:18:35.301Z,96504.72
2022-12-01T05:21:36.899Z,96499.44
2022-12-01T05:24:38.432Z,96494.34
2022-12-01T05:27:39.974Z,96498.69
2022-12-01T05:30:41.562Z,96498.88
2022-12-01T05:33:43.109Z,96506.69
2022-12-01T05:36:44.669Z,96505.84
2022-12-01T05:39:46.382Z,96504.28
2022-12-01T05:42:48.197Z,96504.06
2022-12-01T05:45:50.250Z,96499.63
2022-12-01T05:48:52.007Z,96501.22
2022-12-01T05:51:53.587Z,96503.63
2022-12-01T05:54:55.091Z,96502.78
2022-12-01T05:57:56.592Z,96509.75
2022-12-01T06:00:58.720Z,96500.28
2022-12-01T06:04:00.342Z,96515.78
2022-12-01T06:07:01.945Z,96509.66
2022-12-01T06:10:03.872Z,96515.69
2022-12-01T06:13:05.401Z,96513.13
2022-12-01T06:16:07.469Z,96513.03
2022-12-01T06:19:09.069Z,96505.22
2022-12-01T06:22:11.003Z,96513.88
2022-12-01T06:25:12.680Z,96520.84
2022-12-01T06:28:14.400Z,96520.13
2022-12-01T06:31:15.924Z,96513.88
2022-12-01T06:34:17.457Z,96518.41
2022-12-01T06:37:19.064Z,96522.75
2022-12-01T06:40:20.657Z,96522.53
2022-12-01T06:43:22.183Z,96506.59
2022-12-01T06:46:23.776Z,96532.56
2022-12-01T06:49:25.320Z,96527.50
2022-12-01T06:52:26.859Z,96530.00
2022-12-01T06:55:28.406Z,96524.63
2022-12-01T06:58:30.382Z,96535.94
2022-12-01T07:01:32.307Z,96532.34
2022-12-01T07:04:34.010Z,96543.63
2022-12-01T07:07:37.229Z,96541.97
2022-12-01T07:10:38.767Z,96535.72
2022-12-01T07:13:42.139Z,96543.53
2022-12-01T07:16:43.768Z,96536.56
2022-12-01T07:19:45.377Z,96539.94
2022-12-01T07:22:46.942Z,96546.91
2022-12-01T07:25:48.481Z,96543.53
2022-12-01T07:28:50.009Z,96545.22
2022-12-01T07:31:51.525Z,96546.16
2022-12-01T07:34:53.039Z,96556.44
2022-12-01T07:37:57.577Z,96554.63
2022-12-01T07:41:09.680Z,96555.34
2022-12-01T07:44:11.304Z,96557.16
2022-12-01T07:47:12.882Z,96558.13
2022-12-01T07:50:14.435Z,96560.63
2022-12-01T07:53:15.994Z,96545.75
2022-12-01T07:56:18.342Z,96553.66
2022-12-01T07:59:20.424Z,96551.88
2022-12-01T08:02:22.112Z,96559.59
2022-12-01T08:05:23.696Z,96553.25
2022-12-01T08:08:25.861Z,96562.03
2022-12-01T08:11:29.839Z,96562.75
2022-12-01T08:14:31.404Z,96562.56
2022-12-01T08:17:32.997Z,96550.50
2022-12-01T08:20:34.524Z,96558.97
2022-12-01T08:23:36.105Z,96561.38
2022-12-01T08:26:37.630Z,96560.44
2022-12-01T08:29:39.157Z,96565.72
2022-12-01T08:32:40.717Z,96564.00
2022-12-01T08:35:42.309Z,96564.00
2022-12-01T08:38:45.276Z,96568.44
2022-12-01T08:41:46.847Z,96560.31
2022-12-01T08:44:48.565Z,96562.03
2022-12-01T08:47:50.420Z,96556.75
2022-12-01T08:50:52.039Z,96561.06
2022-12-01T08:53:55.388Z,96555.56
2022-12-01T08:56:56.977Z,96560.00
2022-12-01T08:59:58.727Z,96564.22
2022-12-01T09:03:00.950Z,96562.34
2022-12-01T09:06:05.348Z,96570.88
2022-12-01T09:09:11.676Z,96569.19
2022-12-01T09:12:13.414Z,96566.78
2022-12-01T09:15:15.063Z,96573.41
2022-12-01T09:18:16.598Z,96569.81
2022-12-01T09:21:26.964Z,96572.25
2022-12-01T09:24:28.483Z,96566.00
2022-12-01T09:27:29.987Z,96565.81
2022-12-01T09:30:31.583Z,96568.34
2022-12-01T09:33:33.577Z,96564.72
2022-12-01T09:36:37.102Z,96569.19
2022-12-01T09:39:38.627Z,96560.44
2022-12-01T09:42:40.768Z,96557.66
2022-12-01T09:45:47.473Z,96563.78
2022-12-01T09:48:51.380Z,96562.94
2022-12-01T09:51:54.489Z,96556.59
2022-12-01T09:54:59.225Z,96560.09
2022-12-01T09:58:03.331Z,96557.44
2022-12-01T10:01:05.197Z,96555.75
2022-12-01T10:04:16.564Z,96547.84
2022-12-01T10:07:25.414Z,96547.72
2022-12-01T10:10:34.802Z,96553.53
2022-12-01T10:13:36.420Z,96542.13
2022-12-01T10:16:47.933Z,96542.00
2022-12-01T10:20:19.079Z,96538.44
2022-12-01T10:23:53.044Z,96538.75
2022-12-01T10:27:43.537Z,96534.28
2022-12-01T10:30:53.817Z,96528.81
2022-12-01T10:34:11.420Z,96524.16
2022-12-01T10:37:18.899Z,96524.88
2022-12-01T10:40:20.594Z,96522.97
2022-12-01T10:43:39.447Z,96521.19
2022-12-01T10:46:47.464Z,96524.56
2022-12-01T10:49:49.517Z,96516.41
2022-12-01T10:52:51.320Z,96514.72
2022-12-01T10:56:04.741Z,96511.13
2022-12-01T10:59:25.397Z,96508.38
2022-12-01T11:02:30.403Z,96505.63
2022-12-01T11:05:40.436Z,96490.09
2022-12-01T11:09:22.903Z,96498.56
2022-12-01T11:12:28.696Z,96491.47
2022-12-01T11:15:39.647Z,96493.78
2022-12-01T11:18:41.803Z,96498.22
2022-12-01T11:21:52.362Z,96485.00
2022-12-01T11:24:53.814Z,96489.22
2022-12-01T11:28:01.340Z,96478.88
2022-12-01T11:31:06.462Z,96482.00
2022-12-01T11:34:20.570Z,96480.09
2022-12-01T11:37:24.756Z,96480.22
2022-12-01T11:40:29.689Z,96492.38
2022-12-01T11:43:37.338Z,96486.13
2022-12-01T11:46:50.165Z,96477.25
2022-12-01T11:50:06.976Z,96483.03
2022-12-01T11:53:28.689Z,96485.34
2022-12-01T11:56:31.356Z,96482.19
2022-12-01T11:59:33.227Z,96477.84
2022-12-01T12:03:09.973Z,96481.25
2022-12-01T12:06:50.471Z,96475.84
2022-12-01T12:10:04.187Z,96480.50
2022-12-01T12:13:27.470Z,96475.22
2022-12-01T12:16:50.601Z,96476.41
2022-12-01T12:20:14.107Z,96470.03
2022-12-01T12:23:30.977Z,96468.03
2022-12-01T12:26:40.395Z,96468.03
2022-12-01T12:29:56.436Z,96467.94
2022-12-01T12:33:16.661Z,96465.88
2022-12-01T12:36:37.094Z,96463.25
2022-12-01T12:39:58.943Z,96466.72
2022-12-01T12:43:36.555Z,96457.25
2022-12-01T12:46:47.053Z,96468.63
2022-12-01T12:49:59.686Z,96464.34
2022-12-01T12:53:09.407Z,96466.00
2022-12-01T12:56:14.615Z,96468.63
2022-12-01T12:59:28.092Z,96458.06
2022-12-01T13:02:55.435Z,96462.41
2022-12-01T13:06:10.012Z,96463.03
2022-12-01T13:09:20.188Z,96457.75
2022-12-01T13:12:28.313Z,96452.47
2022-12-01T13:15:31.393Z,96453.31
2022-12-01T13:19:05.850Z,96454.75
2022-12-01T13:22:08.204Z,96457.28
2022-12-01T13:25:13.992Z,96451.03
2022-12-01T13:28:20.808Z,96447.44
2022-12-01T13:31:23.080Z,96445.50
2022-12-01T13:34:39.705Z,96451.66
2022-12-01T13:37:41.960Z,96451.78
2022-12-01T13:40:43.593Z,96462.22
2022-12-01T13:43:53.239Z,96450.69
2022-12-01T13:47:04.372Z,96452.50
2022-12-01T13:50:39.000Z,96455.03
2022-12-01T13:54:06.242Z,96455.03
2022-12-01T13:57:13.979Z,96446.25
2022-12-01T14:00:21.825Z,96446.25
2022-12-01T14:03:23.384Z,96453.22
2022-12-01T14:06:30.951Z,96444.34
2022-12-01T14:09:36.882Z,96447.94
2022-12-01T14:12:41.576Z,96449.63
2022-12-01T14:15:43.751Z,96452.16
2022-12-01T14:18:55.965Z,96453.00
2022-12-01T14:21:57.869Z,96451.06
2022-12-01T14:24:59.924Z,96460.81
2022-12-01T14:28:03.884Z,96464.53
2022-12-01T14:31:05.907Z,96456.72
2022-12-01T14:34:19.112Z,96457.44
2022-12-01T14:37:24.815Z,96448.69
2022-12-01T14:40:30.079Z,96447.94
2022-12-01T14:47:10.920Z,96457.19
2022-12-01T14:50:25.092Z,96461.63
2022-12-01T14:53:33.945Z,96454.03
2022-12-01T14:56:36.857Z,96453.69
2022-12-01T14:59:38.441Z,96457.19
2022-12-01T15:02:50.936Z,96458.03
2022-12-01T15:05:52.630Z,96452.72
2022-12-01T15:09:32.194Z,96451.78
2022-12-01T15:12:29.481Z,96453.59
2022-12-01T15:15:31.003Z,96450.94
2022-12-01T15:18:34.871Z,96463.31
2022-12-01T15:21:37.375Z,96459.81
2022-12-01T15:24:39.427Z,96457.28
2022-12-01T15:27:43.385Z,96455.47
2022-12-01T15:30:49.947Z,96461.72
2022-12-01T15:33:53.305Z,96458.22
2022-12-01T15:36:55.437Z,96467.84
2022-12-01T15:40:54.071Z,96461.84
2022-12-01T15:43:43.498Z,96457.84
2022-12-01T15:46:45.531Z,96462.19
2022-12-01T15:49:50.039Z,96455.00
2022-12-01T15:52:51.797Z,96456.78
2022-12-01T15:55:59.000Z,96455.84
2022-12-01T15:59:16.061Z,96465.66
2022-12-01T16:02:34.152Z,96467.47
2022-12-01T16:05:36.142Z,96463.03
2022-12-01T16:08:37.924Z,96455.31
2022-12-01T16:11:40.101Z,96456.25
2022-12-01T16:14:59.845Z,96457.84
2022-12-01T16:18:26.629Z,96449.91
2022-12-01T16:21:33.426Z,96460.50
2022-12-01T16:24:38.586Z,96455.31
2022-12-01T16:27:40.679Z,96452.91
2022-12-01T16:30:42.289Z,96458.91
2022-12-01T16:33:43.910Z,96468.03
2022-12-01T16:36:45.728Z,96464.44
2022-12-01T16:39:47.281Z,96459.38
2022-12-01T16:42:49.957Z,96460.09
2022-12-01T16:46:00.474Z,96460.94
2022-12-01T16:49:02.127Z,96468.13
2022-12-01T16:52:22.172Z,96462.97
2022-12-01T16:55:43.517Z,96469.81
2022-12-01T16:58:45.127Z,96465.59
2022-12-01T17:01:46.856Z,96448.50
2022-12-01T17:04:48.726Z,96467.19
2022-12-01T17:07:50.778Z,96462.75
2022-12-01T17:10:54.716Z,96464.53
2022-12-01T17:13:56.256Z,96469.81
2022-12-01T17:17:01.042Z,96466.34
2022-12-01T17:20:04.184Z,96468.97
2022-12-01T17:23:06.209Z,96467.19
2022-12-01T17:26:13.046Z,96454.06
2022-12-01T17:29:14.582Z,96460.22
2022-12-01T17:32:16.135Z,96459.47
2022-12-01T17:35:17.978Z,96448.09
2022-12-01T17:38:19.535Z,96454.31
2022-12-01T17:41:25.476Z,96455.28
2022-12-01T17:44:27.034Z,96449.25
2022-12-01T17:47:28.603Z,96451.03
2022-12-01T17:50:30.138Z,96455.59
2022-12-01T17:53:32.922Z,96455.72
2022-12-01T17:56:35.233Z,96454.63
2022-12-01T17:59:36.922Z,96459.91
2022-12-01T18:02:38.659Z,96460.06
2022-12-01T18:05:40.233Z,96456.88
2022-12-01T18:08:42.774Z,96461.97
2022-12-01T18:11:44.333Z,96463.50
2022-12-01T18:14:45.863Z,96464.50
2022-12-01T18:17:47.423Z,96472.44
2022-12-01T18:20:48.942Z,96462.91
2022-12-01T18:23:56.264Z,96466.63
2022-12-01T18:26:57.860Z,96467.56
2022-12-01T18:29:59.373Z,96465.66
2022-12-01T18:33:01.649Z,96476.22
2022-12-01T18:36:03.944Z,96468.31
2022-12-01T18:39:08.083Z,96468.31
2022-12-01T18:42:09.761Z,96466.41
2022-12-01T18:45:12.758Z,96469.03
2022-12-01T18:48:15.873Z,96468.94
2022-12-01T18:51:18.218Z,96468.09
2022-12-01T18:54:19.731Z,96468.00
2022-12-01T18:57:22.532Z,96469.78
2022-12-01T19:00:24.153Z,96467.00
2022-12-01T19:03:29.405Z,96467.00
2022-12-01T19:06:32.723Z,96468.00
2022-12-01T19:09:34.273Z,96464.50
2022-12-01T19:12:40.827Z,96460.06
2022-12-01T19:15:43.054Z,96465.34
2022-12-01T19:18:45.412Z,96460.78
2022-12-01T19:21:47.441Z,96466.06
2022-12-01T19:24:50.745Z,96462.47
2022-12-01T19:27:53.211Z,96465.34
2022-12-01T19:30:54.765Z,96462.72
2022-12-01T19:33:56.460Z,96461.72
2022-12-01T19:36:59.459Z,96460.88
2022-12-01T19:40:02.094Z,96457.41
2022-12-01T19:43:03.711Z,96458.38
2022-12-01T19:46:20.229Z,96449.34
2022-12-01T19:49:22.215Z,96452.94
2022-12-01T19:52:23.890Z,96445.16
2022-12-01T19:55:25.764Z,96451.28
2022-12-01T19:58:27.291Z,96454.78
2022-12-01T20:01:29.038Z,96456.56
2022-12-01T20:04:30.899Z,96459.22
2022-12-01T20:07:32.512Z,96457.41
2022-12-01T20:10:34.373Z,96454.78
2022-12-01T20:13:38.387Z,96461.00
2022-12-01T20:16:40.478Z,96465.56
2022-12-01T20:19:42.080Z,96458.47
2022-12-01T20:22:43.715Z,96458.69
2022-12-01T20:25:45.216Z,96469.16
2022-12-01T20:28:51.246Z,96462.28
2022-12-01T20:31:55.052Z,96465.66
2022-12-01T20:34:56.666Z,96463.75
2022-12-01T20:37:58.170Z,96462.91
2022-12-01T20:40:59.818Z,96459.22
2022-12-01T20:44:06.921Z,96465.34
2022-12-01T20:47:08.967Z,96454.78
2022-12-01T20:50:10.718Z,96453.09
2022-12-01T20:53:12.357Z,96461.00
2022-12-01T20:56:14.488Z,96444.63
2022-12-01T20:59:16.016Z,96453.09
2022-12-01T21:02:17.557Z,96447.91
2022-12-01T21:05:19.097Z,96454.03
2022-12-01T21:08:20.644Z,96449.81
2022-12-01T21:11:51.762Z,96453.09
2022-12-01T21:15:08.962Z,96454.13
2022-12-01T21:18:20.639Z,96452.34
2022-12-01T21:21:27.587Z,96447.91
2022-12-01T21:24:35.012Z,96458.47
2022-12-01T21:27:39.544Z,96448.84
2022-12-01T21:30:41.095Z,96452.44
2022-12-01T21:33:43.227Z,96450.75
2022-12-01T21:36:46.602Z,96456.03
2022-12-01T21:39:51.112Z,96456.03
2022-12-01T21:42:53.202Z,96453.53
2022-12-01T21:46:14.226Z,96456.03
2022-12-01T21:49:21.240Z,96451.00
2022-12-01T21:52:30.116Z,96452.81
2022-12-01T21:55:34.912Z,96449.31
2022-12-01T21:58:37.346Z,96451.00
2022-12-01T22:01:40.328Z,96445.63
2022-12-01T22:04:43.303Z,96442.00
2022-12-01T22:07:44.894Z,96437.69
2022-12-01T22:10:55.948Z,96434.19
2022-12-01T22:14:15.564Z,96439.59
2022-12-01T22:17:21.686Z,96433.47
2022-12-01T22:20:23.237Z,96431.78
2022-12-01T22:23:33.280Z,96433.56
2022-12-01T22:26:37.537Z,96430.06
2022-12-01T22:29:46.990Z,96433.81
2022-12-01T22:33:05.184Z,96436.56
2022-12-01T22:36:21.941Z,96434.03
2022-12-01T22:39:33.924Z,96431.38
2022-12-01T22:42:35.508Z,96432.22
2022-12-01T22:45:38.612Z,96426.09
2022-12-01T22:48:45.115Z,96417.31
2022-12-01T22:51:49.512Z,96420.81
2022-12-01T22:54:51.367Z,96415.53
2022-12-01T22:57:53.937Z,96413.72
2022-12-01T23:00:57.935Z,96412.03
2022-12-01T23:04:19.740Z,96408.56
2022-12-01T23:07:41.489Z,96412.16
2022-12-01T23:10:43.375Z,96416.38
2022-12-01T23:13:44.906Z,96419.13
2022-12-01T23:16:46.542Z,96417.31
2022-12-01T23:19:52.990Z,96410.34
2022-12-01T23:23:00.503Z,96404.31
2022-12-01T23:26:07.500Z,96405.31
2022-12-01T23:29:09.094Z,96397.81
2022-12-01T23:32:12.268Z,96396.75
2022-12-01T23:35:16.827Z,96392.41
2022-12-01T23:38:22.151Z,96388.81
2022-12-01T23:41:41.047Z,96386.28
2022-12-01T23:44:47.135Z,96388.00
2022-12-01T23:47:49.954Z,96385.34
2022-12-01T23:50:53.657Z,96381.75
2022-12-01T23:53:56.759Z,96386.94
2022-12-01T23:57:02.684Z,96377.22
